Aviation Digital Data Service (ADDS)

Output produced by METARs form (1734 UTC 03 June 2020)
found at http://www.aviationweather.gov/metar/data/
 
METAR text: OKBK 031700Z 00000KT CAVOK 40/06 Q1004 NOSIG
Conditions at: OKBK (KUWAIT INTL (MIL, KW) observed 1700 UTC 03 June 2020
Temperature: 40.0°C (104°F)
Dewpoint: 6.0°C (43°F) [RH = 13%]
Pressure (altimeter): 29.65 inches Hg (1004.0 mb)
Winds: calm
Visibility: 6 or more miles (10+ km)
Ceiling: ceiling and visibility are OK
Clouds: unknown
Weather: no significant weather observed at this time

METAR text: OKBK 031600Z 12004KT CAVOK 41/05 Q1003 NOSIG
Conditions at: OKBK (KUWAIT INTL (MIL, KW) observed 1600 UTC 03 June 2020
Temperature: 41.0°C (106°F)
Dewpoint: 5.0°C (41°F) [RH = 11%]
Pressure (altimeter): 29.62 inches Hg (1003.0 mb)
Winds: from the ESE (120 degrees) at 5 MPH (4 knots; 2.1 m/s)
Visibility: 6 or more miles (10+ km)
Ceiling: ceiling and visibility are OK
Clouds: unknown
Weather: no significant weather observed at this time

METAR text: OKBK 031500Z 12004KT CAVOK 43/05 Q1003 NOSIG
Conditions at: OKBK (KUWAIT INTL (MIL, KW) observed 1500 UTC 03 June 2020
Temperature: 43.0°C (109°F)
Dewpoint: 5.0°C (41°F) [RH = 10%]
Pressure (altimeter): 29.62 inches Hg (1003.0 mb)
Winds: from the ESE (120 degrees) at 5 MPH (4 knots; 2.1 m/s)
Visibility: 6 or more miles (10+ km)
Ceiling: ceiling and visibility are OK
Clouds: unknown
Weather: no significant weather observed at this time

METAR text: OKBK 031400Z 11003KT CAVOK 44/05 Q1002 NOSIG
Conditions at: OKBK (KUWAIT INTL (MIL, KW) observed 1400 UTC 03 June 2020
Temperature: 44.0°C (111°F)
Dewpoint: 5.0°C (41°F) [RH = 10%]
Pressure (altimeter): 29.59 inches Hg (1002.0 mb)
Winds: from the ESE (110 degrees) at 3 MPH (3 knots; 1.5 m/s)
Visibility: 6 or more miles (10+ km)
Ceiling: ceiling and visibility are OK
Clouds: unknown
Weather: no significant weather observed at this time

METAR text: OKBK 031300Z 14004KT CAVOK 45/05 Q1002 NOSIG
Conditions at: OKBK (KUWAIT INTL (MIL, KW) observed 1300 UTC 03 June 2020
Temperature: 45.0°C (113°F)
Dewpoint: 5.0°C (41°F) [RH =  9%]
Pressure (altimeter): 29.59 inches Hg (1002.0 mb)
Winds: from the SE (140 degrees) at 5 MPH (4 knots; 2.1 m/s)
Visibility: 6 or more miles (10+ km)
Ceiling: ceiling and visibility are OK
Clouds: unknown
Weather: no significant weather observed at this time

METAR text: OKBK 031200Z 04008KT CAVOK 45/05 Q1003 NOSIG
Conditions at: OKBK (KUWAIT INTL (MIL, KW) observed 1200 UTC 03 June 2020
Temperature: 45.0°C (113°F)
Dewpoint: 5.0°C (41°F) [RH =  9%]
Pressure (altimeter): 29.62 inches Hg (1003.0 mb)
Winds: from the NE (40 degrees) at 9 MPH (8 knots; 4.1 m/s)
Visibility: 6 or more miles (10+ km)
Ceiling: ceiling and visibility are OK
Clouds: unknown
Weather: no significant weather observed at this time

METAR text: OKBK 031100Z 04008KT CAVOK 46/06 Q1003 NOSIG
Conditions at: OKBK (KUWAIT INTL (MIL, KW) observed 1100 UTC 03 June 2020
Temperature: 46.0°C (115°F)
Dewpoint: 6.0°C (43°F) [RH =  9%]
Pressure (altimeter): 29.62 inches Hg (1003.0 mb)
Winds: from the NE (40 degrees) at 9 MPH (8 knots; 4.1 m/s)
Visibility: 6 or more miles (10+ km)
Ceiling: ceiling and visibility are OK
Clouds: unknown
Weather: no significant weather observed at this time

METAR text: OKBK 031000Z 03010KT 8000 SKC 46/05 Q1004 NOSIG
Conditions at: OKBK (KUWAIT INTL (MIL, KW) observed 1000 UTC 03 June 2020
Temperature: 46.0°C (115°F)
Dewpoint: 5.0°C (41°F) [RH =  9%]
Pressure (altimeter): 29.65 inches Hg (1004.0 mb)
Winds: from the NNE (30 degrees) at 12 MPH (10 knots; 5.1 m/s)
Visibility: 5 miles ( 8 km)
Ceiling: at least 12,000 feet AGL
Clouds: clear skies
Weather: no significant weather observed at this time

METAR text: OKBK 030900Z 03011KT 7000 SKC 44/05 Q1004 NOSIG
Conditions at: OKBK (KUWAIT INTL (MIL, KW) observed 0900 UTC 03 June 2020
Temperature: 44.0°C (111°F)
Dewpoint: 5.0°C (41°F) [RH = 10%]
Pressure (altimeter): 29.65 inches Hg (1004.0 mb)
Winds: from the NNE (30 degrees) at 13 MPH (11 knots; 5.7 m/s)
Visibility: 4 miles ( 7 km)
Ceiling: at least 12,000 feet AGL
Clouds: clear skies
Weather: no significant weather observed at this time

METAR text: OKBK 030800Z 02011KT 7000 SKC 43/06 Q1005 NOSIG
Conditions at: OKBK (KUWAIT INTL (MIL, KW) observed 0800 UTC 03 June 2020
Temperature: 43.0°C (109°F)
Dewpoint: 6.0°C (43°F) [RH = 11%]
Pressure (altimeter): 29.68 inches Hg (1005.0 mb)
Winds: from the NNE (20 degrees) at 13 MPH (11 knots; 5.7 m/s)
Visibility: 4 miles ( 7 km)
Ceiling: at least 12,000 feet AGL
Clouds: clear skies
Weather: no significant weather observed at this time

METAR text: OKBK 030700Z 02009KT 7000 SKC 42/07 Q1005 NOSIG
Conditions at: OKBK (KUWAIT INTL (MIL, KW) observed 0700 UTC 03 June 2020
Temperature: 42.0°C (108°F)
Dewpoint: 7.0°C (45°F) [RH = 12%]
Pressure (altimeter): 29.68 inches Hg (1005.0 mb)
Winds: from the NNE (20 degrees) at 10 MPH (9 knots; 4.6 m/s)
Visibility: 4 miles ( 7 km)
Ceiling: at least 12,000 feet AGL
Clouds: clear skies
Weather: no significant weather observed at this time

METAR text: OKBK 030600Z 02010KT 7000 SKC 40/08 Q1004 NOSIG
Conditions at: OKBK (KUWAIT INTL (MIL, KW) observed 0600 UTC 03 June 2020
Temperature: 40.0°C (104°F)
Dewpoint: 8.0°C (46°F) [RH = 15%]
Pressure (altimeter): 29.65 inches Hg (1004.0 mb)
Winds: from the NNE (20 degrees) at 12 MPH (10 knots; 5.1 m/s)
Visibility: 4 miles ( 7 km)
Ceiling: at least 12,000 feet AGL
Clouds: clear skies
Weather: no significant weather observed at this time

METAR text: OKBK 030500Z 36007KT 7000 SKC 37/12 Q1004 NOSIG
Conditions at: OKBK (KUWAIT INTL (MIL, KW) observed 0500 UTC 03 June 2020
Temperature: 37.0°C (99°F)
Dewpoint: 12.0°C (54°F) [RH = 22%]
Pressure (altimeter): 29.65 inches Hg (1004.0 mb)
Winds: from the N (360 degrees) at 8 MPH (7 knots; 3.6 m/s)
Visibility: 4 miles ( 7 km)
Ceiling: at least 12,000 feet AGL
Clouds: clear skies
Weather: no significant weather observed at this time

METAR text: OKBK 030400Z 35009KT 6000 SKC 35/11 Q1003 NOSIG
Conditions at: OKBK (KUWAIT INTL (MIL, KW) observed 0400 UTC 03 June 2020
Temperature: 35.0°C (95°F)
Dewpoint: 11.0°C (52°F) [RH = 23%]
Pressure (altimeter): 29.62 inches Hg (1003.0 mb)
Winds: from the N (350 degrees) at 10 MPH (9 knots; 4.6 m/s)
Visibility: 4 miles ( 6 km)
Ceiling: at least 12,000 feet AGL
Clouds: clear skies
Weather: no significant weather observed at this time

METAR text: OKBK 030300Z 36007KT 6000 SKC 33/12 Q1003 NOSIG
Conditions at: OKBK (KUWAIT INTL (MIL, KW) observed 0300 UTC 03 June 2020
Temperature: 33.0°C (91°F)
Dewpoint: 12.0°C (54°F) [RH = 28%]
Pressure (altimeter): 29.62 inches Hg (1003.0 mb)
Winds: from the N (360 degrees) at 8 MPH (7 knots; 3.6 m/s)
Visibility: 4 miles ( 6 km)
Ceiling: at least 12,000 feet AGL
Clouds: clear skies
Weather: no significant weather observed at this time

METAR text: OKBK 030200Z 36007KT 6000 SKC 33/12 Q1002 NOSIG
Conditions at: OKBK (KUWAIT INTL (MIL, KW) observed 0200 UTC 03 June 2020
Temperature: 33.0°C (91°F)
Dewpoint: 12.0°C (54°F) [RH = 28%]
Pressure (altimeter): 29.59 inches Hg (1002.0 mb)
Winds: from the N (360 degrees) at 8 MPH (7 knots; 3.6 m/s)
Visibility: 4 miles ( 6 km)
Ceiling: at least 12,000 feet AGL
Clouds: clear skies
Weather: no significant weather observed at this time

METAR text: OKBK 030100Z 35005KT CAVOK 33/12 Q1002 NOSIG
Conditions at: OKBK (KUWAIT INTL (MIL, KW) observed 0100 UTC 03 June 2020
Temperature: 33.0°C (91°F)
Dewpoint: 12.0°C (54°F) [RH = 28%]
Pressure (altimeter): 29.59 inches Hg (1002.0 mb)
Winds: from the N (350 degrees) at 6 MPH (5 knots; 2.6 m/s)
Visibility: 6 or more miles (10+ km)
Ceiling: ceiling and visibility are OK
Clouds: unknown
Weather: no significant weather observed at this time

METAR text: OKBK 030000Z 32003KT CAVOK 30/15 Q1002 NOSIG
Conditions at: OKBK (KUWAIT INTL (MIL, KW) observed 0000 UTC 03 June 2020
Temperature: 30.0°C (86°F)
Dewpoint: 15.0°C (59°F) [RH = 40%]
Pressure (altimeter): 29.59 inches Hg (1002.0 mb)
Winds: from the NW (320 degrees) at 3 MPH (3 knots; 1.5 m/s)
Visibility: 6 or more miles (10+ km)
Ceiling: ceiling and visibility are OK
Clouds: unknown
Weather: no significant weather observed at this time

METAR text: OKBK 022300Z 00000KT CAVOK 30/17 Q1002 NOSIG
Conditions at: OKBK (KUWAIT INTL (MIL, KW) observed 2300 UTC 02 June 2020
Temperature: 30.0°C (86°F)
Dewpoint: 17.0°C (63°F) [RH = 46%]
Pressure (altimeter): 29.59 inches Hg (1002.0 mb)
Winds: calm
Visibility: 6 or more miles (10+ km)
Ceiling: ceiling and visibility are OK
Clouds: unknown
Weather: no significant weather observed at this time

METAR text: OKBK 022200Z 00000KT CAVOK 30/18 Q1002 NOSIG
Conditions at: OKBK (KUWAIT INTL (MIL, KW) observed 2200 UTC 02 June 2020
Temperature: 30.0°C (86°F)
Dewpoint: 18.0°C (64°F) [RH = 49%]
Pressure (altimeter): 29.59 inches Hg (1002.0 mb)
Winds: calm
Visibility: 6 or more miles (10+ km)
Ceiling: ceiling and visibility are OK
Clouds: unknown
Weather: no significant weather observed at this time

METAR text: OKBK 022100Z 18004KT CAVOK 31/19 Q1002 NOSIG
Conditions at: OKBK (KUWAIT INTL (MIL, KW) observed 2100 UTC 02 June 2020
Temperature: 31.0°C (88°F)
Dewpoint: 19.0°C (66°F) [RH = 49%]
Pressure (altimeter): 29.59 inches Hg (1002.0 mb)
Winds: from the S (180 degrees) at 5 MPH (4 knots; 2.1 m/s)
Visibility: 6 or more miles (10+ km)
Ceiling: ceiling and visibility are OK
Clouds: unknown
Weather: no significant weather observed at this time

METAR text: OKBK 022000Z 22006KT CAVOK 32/15 Q1002 NOSIG
Conditions at: OKBK (KUWAIT INTL (MIL, KW) observed 2000 UTC 02 June 2020
Temperature: 32.0°C (90°F)
Dewpoint: 15.0°C (59°F) [RH = 36%]
Pressure (altimeter): 29.59 inches Hg (1002.0 mb)
Winds: from the SW (220 degrees) at 7 MPH (6 knots; 3.1 m/s)
Visibility: 6 or more miles (10+ km)
Ceiling: ceiling and visibility are OK
Clouds: unknown
Weather: no significant weather observed at this time

METAR text: OKBK 021900Z 17005KT CAVOK 34/15 Q1002 NOSIG
Conditions at: OKBK (KUWAIT INTL (MIL, KW) observed 1900 UTC 02 June 2020
Temperature: 34.0°C (93°F)
Dewpoint: 15.0°C (59°F) [RH = 32%]
Pressure (altimeter): 29.59 inches Hg (1002.0 mb)
Winds: from the S (170 degrees) at 6 MPH (5 knots; 2.6 m/s)
Visibility: 6 or more miles (10+ km)
Ceiling: ceiling and visibility are OK
Clouds: unknown
Weather: no significant weather observed at this time

METAR text: OKBK 021800Z 14005KT 8000 SKC 35/14 Q1002 NOSIG
Conditions at: OKBK (KUWAIT INTL (MIL, KW) observed 1800 UTC 02 June 2020
Temperature: 35.0°C (95°F)
Dewpoint: 14.0°C (57°F) [RH = 28%]
Pressure (altimeter): 29.59 inches Hg (1002.0 mb)
Winds: from the SE (140 degrees) at 6 MPH (5 knots; 2.6 m/s)
Visibility: 5 miles ( 8 km)
Ceiling: at least 12,000 feet AGL
Clouds: clear skies
Weather: no significant weather observed at this time

METAR text: OKBK 021700Z 15008KT 7000 SKC 37/11 Q1001 NOSIG
Conditions at: OKBK (KUWAIT INTL (MIL, KW) observed 1700 UTC 02 June 2020
Temperature: 37.0°C (99°F)
Dewpoint: 11.0°C (52°F) [RH = 21%]
Pressure (altimeter): 29.56 inches Hg (1001.0 mb)
Winds: from the SSE (150 degrees) at 9 MPH (8 knots; 4.1 m/s)
Visibility: 4 miles ( 7 km)
Ceiling: at least 12,000 feet AGL
Clouds: clear skies
Weather: no significant weather observed at this time

METAR text: OKBK 021600Z 12010KT 7000 SKC 39/10 Q1001 NOSIG
Conditions at: OKBK (KUWAIT INTL (MIL, KW) observed 1600 UTC 02 June 2020
Temperature: 39.0°C (102°F)
Dewpoint: 10.0°C (50°F) [RH = 18%]
Pressure (altimeter): 29.56 inches Hg (1001.0 mb)
Winds: from the ESE (120 degrees) at 12 MPH (10 knots; 5.1 m/s)
Visibility: 4 miles ( 7 km)
Ceiling: at least 12,000 feet AGL
Clouds: clear skies
Weather: no significant weather observed at this time

METAR text: OKBK 021500Z 10012KT 7000 SKC 40/11 Q1001 NOSIG
Conditions at: OKBK (KUWAIT INTL (MIL, KW) observed 1500 UTC 02 June 2020
Temperature: 40.0°C (104°F)
Dewpoint: 11.0°C (52°F) [RH = 18%]
Pressure (altimeter): 29.56 inches Hg (1001.0 mb)
Winds: from the E (100 degrees) at 14 MPH (12 knots; 6.2 m/s)
Visibility: 4 miles ( 7 km)
Ceiling: at least 12,000 feet AGL
Clouds: clear skies
Weather: no significant weather observed at this time

METAR text: OKBK 021400Z 11011KT 7000 SKC 43/10 Q1001 NOSIG
Conditions at: OKBK (KUWAIT INTL (MIL, KW) observed 1400 UTC 02 June 2020
Temperature: 43.0°C (109°F)
Dewpoint: 10.0°C (50°F) [RH = 14%]
Pressure (altimeter): 29.56 inches Hg (1001.0 mb)
Winds: from the ESE (110 degrees) at 13 MPH (11 knots; 5.7 m/s)
Visibility: 4 miles ( 7 km)
Ceiling: at least 12,000 feet AGL
Clouds: clear skies
Weather: no significant weather observed at this time

METAR text: OKBK 021300Z 11013KT 7000 SKC 43/10 Q1001 NOSIG
Conditions at: OKBK (KUWAIT INTL (MIL, KW) observed 1300 UTC 02 June 2020
Temperature: 43.0°C (109°F)
Dewpoint: 10.0°C (50°F) [RH = 14%]
Pressure (altimeter): 29.56 inches Hg (1001.0 mb)
Winds: from the ESE (110 degrees) at 15 MPH (13 knots; 6.7 m/s)
Visibility: 4 miles ( 7 km)
Ceiling: at least 12,000 feet AGL
Clouds: clear skies
Weather: no significant weather observed at this time

METAR text: OKBK 021200Z 09014KT 7000 SKC 43/14 Q1001 NOSIG
Conditions at: OKBK (KUWAIT INTL (MIL, KW) observed 1200 UTC 02 June 2020
Temperature: 43.0°C (109°F)
Dewpoint: 14.0°C (57°F) [RH = 19%]
Pressure (altimeter): 29.56 inches Hg (1001.0 mb)
Winds: from the E (90 degrees) at 16 MPH (14 knots; 7.2 m/s)
Visibility: 4 miles ( 7 km)
Ceiling: at least 12,000 feet AGL
Clouds: clear skies
Weather: no significant weather observed at this time

METAR text: OKBK 021100Z 09011KT 6000 SKC 44/14 Q1002 NOSIG
Conditions at: OKBK (KUWAIT INTL (MIL, KW) observed 1100 UTC 02 June 2020
Temperature: 44.0°C (111°F)
Dewpoint: 14.0°C (57°F) [RH = 18%]
Pressure (altimeter): 29.59 inches Hg (1002.0 mb)
Winds: from the E (90 degrees) at 13 MPH (11 knots; 5.7 m/s)
Visibility: 4 miles ( 6 km)
Ceiling: at least 12,000 feet AGL
Clouds: clear skies
Weather: no significant weather observed at this time

METAR text: OKBK 021000Z 23011KT 6000 SKC 48/05 Q1002 NOSIG
Conditions at: OKBK (KUWAIT INTL (MIL, KW) observed 1000 UTC 02 June 2020
Temperature: 48.0°C (118°F)
Dewpoint: 5.0°C (41°F) [RH =  8%]
Pressure (altimeter): 29.59 inches Hg (1002.0 mb)
Winds: from the SW (230 degrees) at 13 MPH (11 knots; 5.7 m/s)
Visibility: 4 miles ( 6 km)
Ceiling: at least 12,000 feet AGL
Clouds: clear skies
Weather: no significant weather observed at this time

METAR text: OKBK 020900Z 22012KT 6000 SKC 47/05 Q1003 NOSIG
Conditions at: OKBK (KUWAIT INTL (MIL, KW) observed 0900 UTC 02 June 2020
Temperature: 47.0°C (117°F)
Dewpoint: 5.0°C (41°F) [RH =  8%]
Pressure (altimeter): 29.62 inches Hg (1003.0 mb)
Winds: from the SW (220 degrees) at 14 MPH (12 knots; 6.2 m/s)
Visibility: 4 miles ( 6 km)
Ceiling: at least 12,000 feet AGL
Clouds: clear skies
Weather: no significant weather observed at this time

METAR text: OKBK 020800Z 23009KT 6000 SKC 45/06 Q1004 NOSIG
Conditions at: OKBK (KUWAIT INTL (MIL, KW) observed 0800 UTC 02 June 2020
Temperature: 45.0°C (113°F)
Dewpoint: 6.0°C (43°F) [RH = 10%]
Pressure (altimeter): 29.65 inches Hg (1004.0 mb)
Winds: from the SW (230 degrees) at 10 MPH (9 knots; 4.6 m/s)
Visibility: 4 miles ( 6 km)
Ceiling: at least 12,000 feet AGL
Clouds: clear skies
Weather: no significant weather observed at this time

METAR text: OKBK 020700Z 34009KT 6000 SKC 42/05 Q1004 NOSIG
Conditions at: OKBK (KUWAIT INTL (MIL, KW) observed 0700 UTC 02 June 2020
Temperature: 42.0°C (108°F)
Dewpoint: 5.0°C (41°F) [RH = 11%]
Pressure (altimeter): 29.65 inches Hg (1004.0 mb)
Winds: from the NNW (340 degrees) at 10 MPH (9 knots; 4.6 m/s)
Visibility: 4 miles ( 6 km)
Ceiling: at least 12,000 feet AGL
Clouds: clear skies
Weather: no significant weather observed at this time

METAR text: OKBK 020600Z 28008KT 7000 SKC 41/05 Q1004 NOSIG
Conditions at: OKBK (KUWAIT INTL (MIL, KW) observed 0600 UTC 02 June 2020
Temperature: 41.0°C (106°F)
Dewpoint: 5.0°C (41°F) [RH = 11%]
Pressure (altimeter): 29.65 inches Hg (1004.0 mb)
Winds: from the W (280 degrees) at 9 MPH (8 knots; 4.1 m/s)
Visibility: 4 miles ( 7 km)
Ceiling: at least 12,000 feet AGL
Clouds: clear skies
Weather: no significant weather observed at this time

Forecast for: OKBK (KUWAIT INTL (MIL, KW)
Text: TAF OKBK 031645Z 0318/0424 35010G20KT 6000 NSC
Forecast period: 1800 UTC 03 June 2020 to 0000 UTC 05 June 2020
Forecast type: FROM: standard forecast or significant change
Winds: from the N (350 degrees) at 12 MPH (10 knots; 5.1 m/s)
gusting to 23 MPH (20 knots; 10.3 m/s)
Visibility: 4 miles (6 km)
Ceiling: unknown
Clouds: missing
Weather: no significant weather forecast for this period
Text: TEMPO 0318/0402 VRB03KT 4000 HZ
Forecast period: 1800 UTC 03 June 2020 to 0200 UTC 04 June 2020
Forecast type: TEMPORARY: The following changes expected for less than half the time period
Winds: variable direction winds at 3 MPH (3 knots; 1.5 m/s)
Visibility: 2.49 miles (4.01 km)
Ceiling: unknown
Clouds: missing
Weather: HZ  (haze)